createdAt,value
2023-05-22T00:02:08.360Z,100229.03
2023-05-22T00:04:35.324Z,100222.50
2023-05-22T00:07:02.230Z,100230.03
2023-05-22T00:09:29.057Z,100222.25
2023-05-22T00:11:56.127Z,100226.22
2023-05-22T00:14:22.955Z,100222.56
2023-05-22T00:16:50.537Z,100219.72
2023-05-22T00:19:18.417Z,100220.25
2023-05-22T00:21:47.122Z,100232.22
2023-05-22T00:24:14.004Z,100238.00
2023-05-22T00:26:40.785Z,100223.75
2023-05-22T00:29:07.644Z,100223.94
2023-05-22T00:31:34.473Z,100230.37
2023-05-22T00:34:01.586Z,100234.38
2023-05-22T00:36:28.615Z,100219.22
2023-05-22T00:38:55.620Z,100223.63
2023-05-22T00:41:23.157Z,100230.56
2023-05-22T00:43:51.440Z,100225.09
2023-05-22T00:46:21.791Z,100214.47
2023-05-22T00:48:49.251Z,100226.41
2023-05-22T00:51:16.341Z,100204.66
2023-05-22T00:53:44.585Z,100208.00
2023-05-22T00:56:12.568Z,100205.53
2023-05-22T00:58:39.501Z,100201.06
2023-05-22T01:01:07.858Z,100195.31
2023-05-22T01:06:04.528Z,100200.19
2023-05-22T01:08:31.347Z,100200.19
2023-05-22T01:11:05.526Z,100201.34
2023-05-22T01:13:52.000Z,100206.59
2023-05-22T01:16:32.955Z,100199.13
2023-05-22T01:19:11.103Z,100202.16
2023-05-22T01:21:46.452Z,100203.63
2023-05-22T01:24:53.256Z,100200.41
2023-05-22T01:27:26.299Z,100200.53
2023-05-22T01:30:17.694Z,100199.00
2023-05-22T01:32:47.561Z,100197.13
2023-05-22T01:35:19.194Z,100202.53
2023-05-22T01:37:46.803Z,100198.94
2023-05-22T01:40:14.225Z,100201.78
2023-05-22T01:42:41.485Z,100197.91
2023-05-22T01:45:11.718Z,100198.81
2023-05-22T01:47:38.679Z,100200.44
2023-05-22T01:50:06.789Z,100199.56
2023-05-22T01:52:36.192Z,100190.59
2023-05-22T01:55:13.655Z,100203.37
2023-05-22T01:58:20.723Z,100189.81
2023-05-22T02:00:51.753Z,100190.09
2023-05-22T02:03:23.176Z,100198.06
2023-05-22T02:05:54.761Z,100199.31
2023-05-22T02:08:23.040Z,100198.31
2023-05-22T02:10:52.050Z,100196.34
2023-05-22T02:13:19.094Z,100198.75
2023-05-22T02:15:47.364Z,100199.09
2023-05-22T02:18:14.483Z,100191.91
2023-05-22T02:20:46.009Z,100190.81
2023-05-22T02:23:12.811Z,100185.75
2023-05-22T02:25:39.637Z,100185.75
2023-05-22T02:28:06.525Z,100181.94
2023-05-22T02:30:33.468Z,100179.22
2023-05-22T02:33:00.561Z,100187.66
2023-05-22T02:35:27.510Z,100190.66
2023-05-22T02:37:54.374Z,100192.56
2023-05-22T02:40:21.257Z,100194.56
2023-05-22T02:42:48.240Z,100192.44
2023-05-22T02:45:15.117Z,100195.66
2023-05-22T02:47:41.932Z,100187.69
2023-05-22T02:50:09.131Z,100168.88
2023-05-22T02:52:37.256Z,100168.97
2023-05-22T02:55:04.888Z,100164.25
2023-05-22T02:57:32.071Z,100160.13
2023-05-22T02:59:59.406Z,100161.59
2023-05-22T03:02:28.608Z,100166.81
2023-05-22T03:04:55.798Z,100163.13
2023-05-22T03:07:22.642Z,100172.13
2023-05-22T03:09:49.528Z,100205.78
2023-05-22T03:12:16.386Z,100220.44
2023-05-22T03:14:43.158Z,100218.19
2023-05-22T03:17:09.964Z,100212.31
2023-05-22T03:19:36.755Z,100210.88
2023-05-22T03:22:04.005Z,100212.50
2023-05-22T03:24:31.668Z,100207.00
2023-05-22T03:27:00.396Z,100205.63
2023-05-22T03:29:27.249Z,100210.25
2023-05-22T03:31:54.786Z,100220.75
2023-05-22T03:34:27.934Z,100225.34
2023-05-22T03:36:54.762Z,100225.25
2023-05-22T03:39:21.619Z,100227.97
2023-05-22T03:41:48.484Z,100238.03
2023-05-22T03:44:15.260Z,100235.25
2023-05-22T03:46:42.067Z,100224.00
2023-05-22T03:49:08.895Z,100217.28
2023-05-22T03:51:35.808Z,100219.75
2023-05-22T03:54:02.688Z,100215.53
2023-05-22T03:56:29.440Z,100206.41
2023-05-22T03:58:56.386Z,100211.38
2023-05-22T04:01:23.824Z,100216.09
2023-05-22T04:03:50.879Z,100212.09
2023-05-22T04:06:21.852Z,100213.09
2023-05-22T04:08:49.350Z,100205.84
2023-05-22T04:11:16.245Z,100222.09
2023-05-22T04:13:43.297Z,100226.94
2023-05-22T04:16:10.755Z,100228.75
2023-05-22T04:18:37.723Z,100218.06
2023-05-22T04:21:08.180Z,100224.63
2023-05-22T04:23:35.194Z,100219.06
2023-05-22T04:26:03.213Z,100225.97
2023-05-22T04:28:30.473Z,100219.19
2023-05-22T04:30:57.881Z,100223.72
2023-05-22T04:33:24.922Z,100225.53
2023-05-22T04:35:52.475Z,100212.19
2023-05-22T04:38:19.434Z,100221.50
2023-05-22T04:40:46.380Z,100218.50
2023-05-22T04:43:13.980Z,100217.38
2023-05-22T04:45:42.502Z,100225.47
2023-05-22T04:48:09.409Z,100228.09
2023-05-22T04:50:36.303Z,100236.41
2023-05-22T04:53:04.548Z,100231.16
2023-05-22T04:55:34.207Z,100231.44
2023-05-22T04:58:01.122Z,100224.50
2023-05-22T05:00:29.074Z,100218.00
2023-05-22T05:02:57.610Z,100223.31
2023-05-22T05:05:24.665Z,100211.91
2023-05-22T05:07:52.042Z,100212.47
2023-05-22T05:10:19.391Z,100218.56
2023-05-22T05:12:46.255Z,100213.63
2023-05-22T05:15:13.121Z,100216.72
2023-05-22T05:17:40.106Z,100219.31
2023-05-22T05:20:07.932Z,100212.34
2023-05-22T05:22:34.973Z,100209.28
2023-05-22T05:25:02.105Z,100206.47
2023-05-22T05:27:28.885Z,100206.37
2023-05-22T05:29:56.265Z,100202.84
2023-05-22T05:32:23.196Z,100204.13
2023-05-22T05:34:50.280Z,100204.84
2023-05-22T05:37:17.396Z,100203.94
2023-05-22T05:39:44.681Z,100211.13
2023-05-22T05:42:11.681Z,100203.13
2023-05-22T05:44:38.623Z,100199.63
2023-05-22T05:47:05.873Z,100213.81
2023-05-22T05:49:35.658Z,100215.28
2023-05-22T05:52:02.899Z,100213.13
2023-05-22T05:54:29.754Z,100218.38
2023-05-22T05:56:56.542Z,100222.69
2023-05-22T05:59:24.562Z,100216.56
2023-05-22T06:01:51.651Z,100217.59
2023-05-22T06:04:18.522Z,100216.63
2023-05-22T06:06:45.499Z,100218.34
2023-05-22T06:09:12.483Z,100215.62
2023-05-22T06:11:39.328Z,100211.34
2023-05-22T06:14:07.579Z,100220.13
2023-05-22T06:16:34.585Z,100216.75
2023-05-22T06:19:01.594Z,100213.44
2023-05-22T06:21:28.516Z,100213.97
2023-05-22T06:23:55.405Z,100214.69
2023-05-22T06:26:23.692Z,100218.28
2023-05-22T06:28:51.973Z,100218.16
2023-05-22T06:31:18.969Z,100214.59
2023-05-22T06:33:45.994Z,100223.25
2023-05-22T06:36:12.987Z,100227.19
2023-05-22T06:38:39.929Z,100226.00
2023-05-22T06:41:08.462Z,100220.41
2023-05-22T06:43:35.347Z,100230.75
2023-05-22T06:46:02.256Z,100235.16
2023-05-22T06:48:29.160Z,100235.28
2023-05-22T06:50:56.148Z,100236.09
2023-05-22T06:53:24.080Z,100235.03
2023-05-22T06:55:51.266Z,100248.78
2023-05-22T06:58:18.934Z,100236.19
2023-05-22T07:00:46.282Z,100230.00
2023-05-22T07:03:13.152Z,100224.97
2023-05-22T07:05:40.146Z,100228.22
2023-05-22T07:08:08.603Z,100231.38
2023-05-22T07:10:35.516Z,100226.94
2023-05-22T07:13:02.422Z,100218.56
2023-05-22T07:15:29.299Z,100227.00
2023-05-22T07:17:56.277Z,100220.00
2023-05-22T07:20:23.318Z,100217.78
2023-05-22T07:22:50.264Z,100212.91
2023-05-22T07:25:17.193Z,100209.34
2023-05-22T07:27:44.335Z,100217.19
2023-05-22T07:30:11.692Z,100230.16
2023-05-22T07:32:38.720Z,100219.09
2023-05-22T07:35:06.337Z,100222.81
2023-05-22T07:37:33.203Z,100221.19
2023-05-22T07:40:00.250Z,100226.16
2023-05-22T07:42:28.260Z,100228.69
2023-05-22T07:44:55.111Z,100228.44
2023-05-22T07:47:22.034Z,100228.19
2023-05-22T07:49:48.974Z,100225.12
2023-05-22T07:52:15.831Z,100220.97
2023-05-22T07:54:44.311Z,100221.59
2023-05-22T07:57:12.826Z,100228.84
2023-05-22T07:59:39.643Z,100230.97
2023-05-22T08:02:08.607Z,100227.34
2023-05-22T08:04:35.764Z,100232.94
2023-05-22T08:07:02.818Z,100235.00
2023-05-22T08:09:29.710Z,100227.75
2023-05-22T08:11:56.680Z,100231.59
2023-05-22T08:14:23.694Z,100234.25
2023-05-22T08:16:50.473Z,100239.69
2023-05-22T08:19:17.494Z,100233.34
2023-05-22T08:21:44.464Z,100240.03
2023-05-22T08:24:11.505Z,100232.34
2023-05-22T08:26:39.079Z,100227.19
2023-05-22T08:29:05.940Z,100220.88
2023-05-22T08:31:34.637Z,100226.47
2023-05-22T08:34:06.576Z,100222.00
2023-05-22T08:36:36.253Z,100212.63
2023-05-22T08:39:03.768Z,100215.78
2023-05-22T08:41:30.703Z,100216.34
2023-05-22T08:43:57.745Z,100208.69
2023-05-22T08:46:29.429Z,100209.69
2023-05-22T08:48:59.497Z,100202.09
2023-05-22T08:51:31.686Z,100205.94
2023-05-22T08:53:59.597Z,100203.53
2023-05-22T08:56:28.583Z,100191.12
2023-05-22T08:58:58.527Z,100198.41
2023-05-22T09:01:25.689Z,100193.13
2023-05-22T09:03:52.723Z,100192.47
2023-05-22T09:06:19.620Z,100192.53
2023-05-22T09:08:46.468Z,100189.97
2023-05-22T09:11:13.453Z,100190.69
2023-05-22T09:13:41.627Z,100193.50
2023-05-22T09:16:12.388Z,100186.94
2023-05-22T09:18:40.107Z,100187.88
2023-05-22T09:21:21.469Z,100193.56
2023-05-22T09:23:55.062Z,100189.28
2023-05-22T09:26:22.582Z,100196.00
2023-05-22T09:28:49.646Z,100196.56
2023-05-22T09:31:16.713Z,100197.44
2023-05-22T09:33:44.640Z,100200.19
2023-05-22T09:36:11.888Z,100198.84
2023-05-22T09:38:39.586Z,100188.31
2023-05-22T09:41:06.601Z,100183.72
2023-05-22T09:43:33.898Z,100194.78
2023-05-22T09:46:02.210Z,100185.87
2023-05-22T09:48:29.330Z,100179.91
2023-05-22T09:51:00.007Z,100174.88
2023-05-22T09:53:29.140Z,100176.94
2023-05-22T09:56:00.220Z,100177.94
2023-05-22T09:58:28.144Z,100180.13
2023-05-22T10:00:58.507Z,100182.91
2023-05-22T10:03:27.320Z,100181.69
2023-05-22T10:05:56.639Z,100178.00
2023-05-22T10:08:34.714Z,100179.97
2023-05-22T10:11:02.155Z,100173.78
2023-05-22T10:13:30.255Z,100171.31
2023-05-22T10:15:57.834Z,100172.41
2023-05-22T10:18:25.222Z,100169.34
2023-05-22T10:20:52.703Z,100167.28
2023-05-22T10:23:20.014Z,100169.37
2023-05-22T10:25:47.148Z,100163.25
2023-05-22T10:28:20.774Z,100158.50
2023-05-22T10:30:55.797Z,100161.09
2023-05-22T10:33:26.302Z,100161.59
2023-05-22T10:36:07.747Z,100157.09
2023-05-22T10:39:16.116Z,100157.19
2023-05-22T10:41:42.926Z,100155.19
2023-05-22T10:44:10.016Z,100151.97
2023-05-22T10:46:36.974Z,100146.28
2023-05-22T10:49:04.161Z,100152.87
2023-05-22T10:51:34.483Z,100144.25
2023-05-22T10:54:06.297Z,100142.13
2023-05-22T10:56:37.349Z,100143.25
2023-05-22T10:59:07.533Z,100143.09
2023-05-22T11:01:40.954Z,100137.56
2023-05-22T11:04:07.700Z,100140.78
2023-05-22T11:06:47.350Z,100140.56
2023-05-22T11:09:24.071Z,100134.00
2023-05-22T11:12:12.595Z,100136.03
2023-05-22T11:14:39.662Z,100132.72
2023-05-22T11:17:07.152Z,100123.84
2023-05-22T11:19:34.548Z,100123.25
2023-05-22T11:22:04.626Z,100118.16
2023-05-22T11:24:35.166Z,100119.69
2023-05-22T11:27:05.951Z,100113.75
2023-05-22T11:29:33.943Z,100107.41
2023-05-22T11:32:02.070Z,100097.56
2023-05-22T11:34:29.292Z,100106.62
2023-05-22T11:37:00.315Z,100094.97
2023-05-22T11:39:27.862Z,100091.66
2023-05-22T11:41:55.119Z,100087.94
2023-05-22T11:44:22.129Z,100081.53
2023-05-22T11:46:49.336Z,100079.88
2023-05-22T11:49:17.389Z,100090.03
2023-05-22T11:51:44.645Z,100085.22
2023-05-22T11:54:12.048Z,100076.59
2023-05-22T11:56:38.929Z,100078.75
2023-05-22T11:59:05.868Z,100083.56
2023-05-22T12:01:32.768Z,100076.88
2023-05-22T12:03:59.766Z,100077.19
2023-05-22T12:06:27.026Z,100073.84
2023-05-22T12:08:54.402Z,100066.31
2023-05-22T12:11:21.842Z,100061.91
2023-05-22T12:13:52.331Z,100068.38
2023-05-22T12:16:22.340Z,100072.41
2023-05-22T12:18:53.900Z,100063.25
2023-05-22T12:21:21.161Z,100068.34
2023-05-22T12:23:52.516Z,100066.47
2023-05-22T12:26:19.457Z,100072.91
2023-05-22T12:28:46.512Z,100081.03
2023-05-22T12:31:21.445Z,100082.97
2023-05-22T12:33:48.548Z,100091.72
2023-05-22T12:36:15.434Z,100079.91
2023-05-22T12:38:42.314Z,100076.84
2023-05-22T12:41:09.090Z,100073.50
2023-05-22T12:43:36.038Z,100072.53
2023-05-22T12:46:03.170Z,100073.84
2023-05-22T12:48:30.030Z,100079.50
2023-05-22T12:50:56.892Z,100079.41
2023-05-22T12:53:24.536Z,100077.94
2023-05-22T12:55:51.454Z,100082.84
2023-05-22T12:58:18.459Z,100080.09
2023-05-22T13:00:45.378Z,100080.34
2023-05-22T13:03:12.669Z,100075.38
2023-05-22T13:05:40.070Z,100075.03
2023-05-22T13:08:07.356Z,100081.91
2023-05-22T13:10:35.597Z,100106.34
2023-05-22T13:13:03.254Z,100095.69
2023-05-22T13:15:31.534Z,100097.31
2023-05-22T13:17:58.626Z,100100.66
2023-05-22T13:20:25.488Z,100097.16
2023-05-22T13:22:52.484Z,100098.56
2023-05-22T13:25:19.398Z,100097.28
2023-05-22T13:27:46.596Z,100095.31
2023-05-22T13:30:16.287Z,100088.13
2023-05-22T13:32:45.119Z,100082.44
2023-05-22T13:35:12.014Z,100086.00
2023-05-22T13:37:41.691Z,100078.81
2023-05-22T13:40:09.134Z,100084.97
2023-05-22T13:42:36.516Z,100075.66
2023-05-22T13:45:09.346Z,100074.87
2023-05-22T13:47:36.507Z,100078.81
2023-05-22T13:50:05.643Z,100073.00
2023-05-22T13:52:32.484Z,100073.38
2023-05-22T13:55:00.322Z,100074.97
2023-05-22T13:57:29.054Z,100066.56
2023-05-22T13:59:55.972Z,100062.19
2023-05-22T14:02:22.859Z,100066.88
2023-05-22T14:04:52.754Z,100057.59
2023-05-22T14:07:19.679Z,100049.97
2023-05-22T14:09:46.557Z,100054.91
2023-05-22T14:12:13.727Z,100043.91
2023-05-22T14:14:40.765Z,100047.00
2023-05-22T14:17:08.800Z,100040.50
2023-05-22T14:19:36.578Z,100032.09
2023-05-22T14:22:03.954Z,100028.72
2023-05-22T14:24:33.276Z,100021.19
2023-05-22T14:27:02.149Z,100017.28
2023-05-22T14:29:29.190Z,100013.16
2023-05-22T14:32:05.676Z,100022.34
2023-05-22T14:34:32.778Z,100024.38
2023-05-22T14:36:59.865Z,100010.06
2023-05-22T14:39:26.817Z,100020.41
2023-05-22T14:41:54.802Z,100017.31
2023-05-22T14:44:22.828Z,100021.84
2023-05-22T14:46:51.252Z,100017.72
2023-05-22T14:49:18.762Z,100015.34
2023-05-22T14:51:48.482Z,100015.84
2023-05-22T14:54:18.110Z,100012.75
2023-05-22T14:56:47.784Z,100009.66
2023-05-22T14:59:14.656Z,100005.28
2023-05-22T15:01:41.840Z,100010.59
2023-05-22T15:04:11.046Z,100008.09
2023-05-22T15:06:38.221Z,100001.00
2023-05-22T15:09:05.096Z,100009.25
2023-05-22T15:11:33.998Z,100007.84
2023-05-22T15:14:00.999Z,99989.69
2023-05-22T15:16:28.162Z,99998.19
2023-05-22T15:18:56.563Z,99991.00
2023-05-22T15:21:23.675Z,99995.63
2023-05-22T15:23:51.484Z,99992.41
2023-05-22T15:26:18.364Z,99991.56
2023-05-22T15:28:45.454Z,99994.25
2023-05-22T15:31:13.594Z,99994.53
2023-05-22T15:33:40.415Z,99988.72
2023-05-22T15:36:07.499Z,99994.84
2023-05-22T15:38:34.481Z,99993.41
2023-05-22T15:41:01.378Z,99991.22
2023-05-22T15:43:28.276Z,99987.88
2023-05-22T15:45:55.197Z,99986.59
2023-05-22T15:48:22.152Z,99987.75
2023-05-22T15:50:49.056Z,99993.87
2023-05-22T15:53:16.189Z,99987.25
2023-05-22T15:55:43.055Z,99982.91
2023-05-22T15:58:09.940Z,99976.63
2023-05-22T16:00:41.350Z,99980.16
2023-05-22T16:03:09.131Z,99985.00
2023-05-22T16:05:38.938Z,99985.09
2023-05-22T16:08:12.702Z,99977.00
2023-05-22T16:10:41.814Z,99981.38
2023-05-22T16:13:10.746Z,99971.41
2023-05-22T16:15:40.102Z,99974.38
2023-05-22T16:18:08.254Z,99977.44
2023-05-22T16:20:36.194Z,99979.75
2023-05-22T16:23:03.307Z,99968.59
2023-05-22T16:25:30.159Z,99965.22
2023-05-22T16:27:57.228Z,99970.09
2023-05-22T16:30:24.098Z,99970.50
2023-05-22T16:32:51.116Z,99979.81
2023-05-22T16:35:19.806Z,99981.25
2023-05-22T16:37:46.788Z,99987.25
2023-05-22T16:40:13.734Z,99978.03
2023-05-22T16:42:40.713Z,99987.56
2023-05-22T16:45:08.170Z,99983.53
2023-05-22T16:47:35.137Z,99986.19
2023-05-22T16:50:02.183Z,99991.22
2023-05-22T16:52:29.209Z,99980.09
2023-05-22T16:54:56.172Z,99981.88
2023-05-22T16:57:23.362Z,99983.66
2023-05-22T16:59:50.457Z,99982.72
2023-05-22T17:02:17.381Z,99986.88
2023-05-22T17:04:44.388Z,99988.34
2023-05-22T17:07:11.237Z,99995.50
2023-05-22T17:09:38.362Z,99991.75
2023-05-22T17:12:05.691Z,100003.47
2023-05-22T17:14:34.478Z,99996.34
2023-05-22T17:17:01.352Z,100003.91
2023-05-22T17:19:28.298Z,100007.22
2023-05-22T17:21:55.334Z,100015.00
2023-05-22T17:24:22.215Z,100012.88
2023-05-22T17:26:49.229Z,100007.22
2023-05-22T17:29:16.390Z,100014.16
2023-05-22T17:31:43.267Z,100012.59
2023-05-22T17:34:10.061Z,100016.28
2023-05-22T17:36:37.346Z,100022.94
2023-05-22T17:39:04.534Z,100017.09
2023-05-22T17:41:31.609Z,100007.72
2023-05-22T17:44:00.925Z,100011.50
2023-05-22T17:46:27.999Z,100011.72
2023-05-22T17:48:55.600Z,100008.69
2023-05-22T17:51:22.873Z,100011.34
2023-05-22T17:53:50.332Z,100010.84
2023-05-22T17:56:17.594Z,100017.13
2023-05-22T17:58:44.571Z,100012.22
2023-05-22T18:01:11.516Z,100013.34
2023-05-22T18:03:38.491Z,100014.47
2023-05-22T18:06:05.921Z,100006.56
2023-05-22T18:08:32.758Z,100004.88
2023-05-22T18:10:59.693Z,100010.13
2023-05-22T18:13:26.591Z,100010.53
2023-05-22T18:15:54.128Z,100006.56
2023-05-22T18:18:22.742Z,100010.53
2023-05-22T18:20:49.892Z,100012.28
2023-05-22T18:23:16.752Z,100011.75
2023-05-22T18:25:43.641Z,100009.22
2023-05-22T18:28:10.570Z,100015.44
2023-05-22T18:30:37.655Z,100013.75
2023-05-22T18:33:04.779Z,100014.97
2023-05-22T18:35:31.863Z,100031.41
2023-05-22T18:38:00.357Z,100030.28
2023-05-22T18:40:27.262Z,100025.62
2023-05-22T18:42:54.118Z,100024.63
2023-05-22T18:45:21.052Z,100035.41
2023-05-22T18:47:47.924Z,100039.44
2023-05-22T18:50:14.900Z,100034.69
2023-05-22T18:52:41.779Z,100035.78
2023-05-22T18:55:09.249Z,100033.69
2023-05-22T18:57:36.466Z,100038.62
2023-05-22T19:00:03.581Z,100044.09
2023-05-22T19:02:30.640Z,100045.75
2023-05-22T19:04:57.489Z,100040.56
2023-05-22T19:07:24.392Z,100044.69
2023-05-22T19:09:51.571Z,100051.84
2023-05-22T19:12:18.457Z,100048.22
2023-05-22T19:14:45.371Z,100054.19
2023-05-22T19:17:12.537Z,100065.13
2023-05-22T19:19:39.722Z,100075.88
2023-05-22T19:22:06.679Z,100073.41
2023-05-22T19:24:33.489Z,100078.16
2023-05-22T19:27:00.602Z,100077.59
2023-05-22T19:29:27.512Z,100082.53
2023-05-22T19:31:54.370Z,100086.81
2023-05-22T19:34:21.657Z,100082.13
2023-05-22T19:36:50.529Z,100093.50
2023-05-22T19:39:17.457Z,100082.62
2023-05-22T19:41:44.246Z,100084.69
2023-05-22T19:44:11.046Z,100094.56
2023-05-22T19:46:37.961Z,100089.84
2023-05-22T19:49:04.773Z,100085.31
2023-05-22T19:51:32.287Z,100081.44
2023-05-22T19:53:59.799Z,100075.69
2023-05-22T19:56:27.287Z,100077.25
2023-05-22T19:58:54.167Z,100085.59
2023-05-22T20:01:21.069Z,100086.97
2023-05-22T20:03:48.154Z,100078.16
2023-05-22T20:06:15.209Z,100079.00
2023-05-22T20:08:42.008Z,100084.81
2023-05-22T20:11:09.006Z,100084.16
2023-05-22T20:13:35.846Z,100079.44
2023-05-22T20:16:03.727Z,100083.59
2023-05-22T20:18:32.428Z,100076.59
2023-05-22T20:20:59.273Z,100088.09
2023-05-22T20:23:26.403Z,100091.84
2023-05-22T20:25:53.295Z,100088.31
2023-05-22T20:28:20.136Z,100084.13
2023-05-22T20:30:47.136Z,100084.22
2023-05-22T20:33:14.557Z,100082.50
2023-05-22T20:35:42.456Z,100074.78
2023-05-22T20:38:10.045Z,100076.62
2023-05-22T20:40:37.121Z,100069.88
2023-05-22T20:43:04.177Z,100068.59
2023-05-22T20:45:31.223Z,100070.03
2023-05-22T20:47:58.141Z,100078.00
2023-05-22T20:50:25.031Z,100076.25
2023-05-22T20:52:51.890Z,100078.94
2023-05-22T20:55:18.950Z,100076.91
2023-05-22T20:57:45.988Z,100073.44
2023-05-22T21:00:14.030Z,100078.84
2023-05-22T21:02:41.040Z,100076.81
2023-05-22T21:05:08.322Z,100073.38
2023-05-22T21:07:35.250Z,100069.50
2023-05-22T21:10:02.219Z,100069.81
2023-05-22T21:12:29.205Z,100069.69
2023-05-22T21:14:56.082Z,100068.81
2023-05-22T21:17:24.141Z,100069.97
2023-05-22T21:19:51.201Z,100062.69
2023-05-22T21:22:18.082Z,100059.31
2023-05-22T21:24:45.018Z,100062.47
2023-05-22T21:27:12.045Z,100062.69
2023-05-22T21:29:38.965Z,100055.38
2023-05-22T21:32:06.290Z,100065.78
2023-05-22T21:34:33.091Z,100065.34
2023-05-22T21:36:59.957Z,100069.03
2023-05-22T21:39:26.956Z,100069.38
2023-05-22T21:41:53.774Z,100069.81
2023-05-22T21:44:20.762Z,100076.47
2023-05-22T21:46:47.697Z,100071.91
2023-05-22T21:49:15.129Z,100081.28
2023-05-22T21:51:41.947Z,100075.84
2023-05-22T21:54:08.763Z,100072.06
2023-05-22T21:56:35.744Z,100073.63
2023-05-22T21:59:02.684Z,100068.72
2023-05-22T22:01:29.598Z,100074.13
2023-05-22T22:12:08.938Z,100080.97
2023-05-22T22:14:36.053Z,100075.38
2023-05-22T22:17:05.953Z,100076.41
2023-05-22T22:19:34.502Z,100077.06
2023-05-22T22:22:02.635Z,100083.50
2023-05-22T22:24:29.982Z,100082.06
2023-05-22T22:26:56.961Z,100084.41
2023-05-22T22:29:23.970Z,100079.56
2023-05-22T22:31:51.063Z,100086.50
2023-05-22T22:34:18.139Z,100080.59
2023-05-22T22:36:45.149Z,100084.87
2023-05-22T22:39:12.485Z,100086.38
2023-05-22T22:41:39.304Z,100084.63
2023-05-22T22:44:06.131Z,100088.78
2023-05-22T22:46:33.068Z,100081.34
2023-05-22T22:49:02.005Z,100092.47
2023-05-22T22:51:32.271Z,100091.72
2023-05-22T22:53:59.185Z,100088.47
2023-05-22T22:56:29.508Z,100086.97
2023-05-22T22:58:57.474Z,100090.38
2023-05-22T23:01:24.893Z,100084.72
2023-05-22T23:03:52.207Z,100092.25
2023-05-22T23:06:19.603Z,100089.91
2023-05-22T23:08:46.433Z,100086.69
2023-05-22T23:11:13.344Z,100087.28
2023-05-22T23:13:41.469Z,100090.53
2023-05-22T23:16:08.709Z,100099.00
2023-05-22T23:18:35.648Z,100099.28
2023-05-22T23:21:02.597Z,100090.09
2023-05-22T23:23:29.467Z,100091.69
2023-05-22T23:25:58.910Z,100098.09
2023-05-22T23:28:25.845Z,100087.38
2023-05-22T23:30:53.004Z,100094.22
2023-05-22T23:33:19.900Z,100092.63
2023-05-22T23:35:46.755Z,100095.84
2023-05-22T23:38:13.547Z,100093.00
2023-05-22T23:40:40.436Z,100096.19
2023-05-22T23:43:07.239Z,100096.84
2023-05-22T23:45:34.122Z,100086.38
2023-05-22T23:48:01.006Z,100087.81
2023-05-22T23:50:27.791Z,100086.91
2023-05-22T23:52:54.710Z,100080.19
2023-05-22T23:55:21.572Z,100089.28
2023-05-22T23:57:48.417Z,100087.78
